Terminal Aerodrome Forecast
Issued by NWS

Home | Current Version | Previous Version | Text Only | Print | Product List | Glossary On
Versions: 1 2 3 4 5 6 7 8 9 10 11 12 13 14 15 16
000
FTUS43 KDTX 281726
TAFMBS
TAF
KMBS 281726Z 2818/2918 17006KT P6SM SCT120 BKN200
     FM290200 16010KT P6SM BKN080 OVC120
     FM290900 16013G19KT 3SM -SN BKN040 OVC060
     FM291100 17012KT 3/4SM -SN BR BKN005 OVC012
     FM291500 21010KT 2SM -SN BR BKN008 OVC018=

USA.gov is the U.S. government's official web portal to all federal, state and local government web resources and services.